North Tazewell, VA (24630)

01:49 AM EST วัน มกราคม 17, 2017 (GMT -0500)
MF0183 | | Change Station

Elev 3083 ft 37.10 °N, 81.34 °W | Updated 31 minutes ago

มีเมฆคลุมไปทั่ว
มีเมฆคลุมไปทั่ว
45.0 ฟาเรนไฮน์
Feels Like 45 ฟาเรนไฮน์
N
0.0
ลม ความผันแปร ลม from ทางทิศตะวันตกและทิศตะวันตกเฉียงใต้
Gusts 3.0 mph

วันนี้
High -- | Low -- ฟาเรนไฮน์
--% Chance of Precip.
Yesterday
High -- | Low -- ฟาเรนไฮน์
Precip. -- นิ้ว
ความดัน 30.15 นิ้ว
ทัศนวิสัย 10.0 ไมล์
เมฆ Few 6000 ft
Few 7500 ft
ลมหนาว 45 ฟาเรนไฮน์
อุณหภูมิที่อากาศอาจจับตัวเป็นหยาดน้ำค้าง 41 ฟาเรนไฮน์
ความชื้น 87%
Rainfall 0.00 นิ้ว
Snow Depth Not available.
7:37 AM 5:34 PM
ข้างแรม, 75% visible
METAR KBLF 170552Z AUTO 23004KT 10SM FEW060 FEW075 11/07 A3019 RMK AO2 SLP209 T01060067 10117 20089 56018
ความดัน 30.15 นิ้ว
ทัศนวิสัย 10.0 ไมล์
เมฆ Few 6000 ft
Few 7500 ft
ลมหนาว 45 ฟาเรนไฮน์
อุณหภูมิที่อากาศอาจจับตัวเป็นหยาดน้ำค้าง 41 ฟาเรนไฮน์
ความชื้น 87%
Rainfall 0.00 นิ้ว
Snow Depth Not available.
7:37 AM 5:34 PM
ข้างแรม, 75% visible
METAR KBLF 170552Z AUTO 23004KT 10SM FEW060 FEW075 11/07 A3019 RMK AO2 SLP209 T01060067 10117 20089 56018

Get Your Daily Forecast Email!

Thanks for signing up!

Be on the lookout for a verification email in your inbox.

You'll start receiving the daily forecast at 8 AM.

×

10-Day Weather Forecast

Almanac

ดาราศาสตร์

Jan. 17, 2017 Rise Set
Actual Time
Civil Twilight
Nautical Twilight
Astronomical Twilight
Moon
Length Of Visible Light
ความยาวของวัน
Tomorrow will be .
, % of the Moon is Illuminated

Today's Extremes

State Highs State Lows

Community

WunderPhotos

Upload Photos

1,962,540 photos uploaded!

WunderBlog® & News

Nearby

Air Quality

  Air Quality AQ Index Pollutant
Not available.

Snow Depth

Station Depth Elevation

Earthquake Activity

City Distance Mag. Time & Date
Minimum magnitude displayed is 2.5.

Coastal Water Temperatures

สถานที่ อุณหภูมิ

Stations

Nearby Weather Stations

Station Location Temp ลมหนาว อุณหภูมิที่อากาศอาจจับตัวเป็นหยาดน้ำค้าง ความชื้น ลม Precip. Elev ปรับปรุงล่าสุด Type
                   

Watches & Warnings

There are currently no watches in effect.